Time;durP1;ratioP1;P1;durP2;ratioP2;P2;SDS_P1;SDS_P2;PMS_P1;PMS_P2;Temp;Humidity;BMP_temperature;BMP_pressure;BME280_temperature;BME280_humidity;BME280_pressure;Samples;Min_cycle;Max_cycle;Signal;HPM_P1;HPM_P2
2023/07/30 00:02:01;;;;;;;20.10;11.05;;;;;;;-141.23;100.00;62281.09;5015144;28;20108;-75
2023/07/30 00:04:27;;;;;;;21.80;10.70;;;;;;;-141.23;100.00;62281.09;5014692;28;20042;-75
2023/07/30 00:06:52;;;;;;;16.70;10.00;;;;;;;-141.23;100.00;62281.09;5014473;28;20060;-72
2023/07/30 00:09:18;;;;;;;15.85;9.65;;;;;;;-141.23;100.00;62281.09;5014757;28;20049;-75
2023/07/30 00:11:45;;;;;;;20.17;10.13;;;;;;;-141.23;100.00;62281.09;4998535;28;20543;-76
2023/07/30 00:14:11;;;;;;;19.40;9.70;;;;;;;-141.23;100.00;62281.09;5014266;28;20060;-74
2023/07/30 00:16:37;;;;;;;17.17;9.55;;;;;;;-141.23;100.00;62281.09;5014114;28;20436;-76
2023/07/30 00:19:03;;;;;;;27.80;9.13;;;;;;;-141.23;100.00;62281.09;5014587;28;20065;-74
2023/07/30 00:21:29;;;;;;;23.77;8.95;;;;;;;-141.23;100.00;62281.09;5030642;28;20049;-74
2023/07/30 00:23:58;;;;;;;21.90;9.23;;;;;;;-141.23;100.00;62281.09;5013833;28;20491;-74
2023/07/30 00:26:26;;;;;;;21.33;9.93;;;;;;;-141.23;100.00;62281.09;4985095;28;20053;-73
2023/07/30 00:28:52;;;;;;;19.90;10.68;;;;;;;-141.23;100.00;62281.09;5034282;28;20141;-75
2023/07/30 00:31:19;;;;;;;22.60;13.75;;;;;;;-141.23;100.00;62281.09;5017264;28;20107;-75
2023/07/30 00:33:46;;;;;;;26.90;15.48;;;;;;;-141.23;100.00;62281.09;5034145;28;20410;-75
2023/07/30 00:36:12;;;;;;;30.52;17.70;;;;;;;-141.23;100.00;62281.09;5018468;28;20503;-74
2023/07/30 00:38:38;;;;;;;35.88;16.88;;;;;;;-141.23;100.00;62281.09;5018777;28;20041;-75
2023/07/30 00:41:04;;;;;;;36.90;16.40;;;;;;;-141.23;100.00;62281.09;5035112;28;20041;-76
2023/07/30 00:43:32;;;;;;;24.13;14.70;;;;;;;-141.23;100.00;62281.09;5019340;28;20122;-75
2023/07/30 00:46:03;;;;;;;32.00;15.25;;;;;;;-141.23;100.00;62281.09;5018319;28;20114;-75
2023/07/30 00:48:30;;;;;;;25.63;15.25;;;;;;;-141.23;100.00;62281.09;5035564;28;20041;-75
2023/07/30 00:50:58;;;;;;;24.25;13.75;;;;;;;-141.23;100.00;62281.09;5033984;28;20057;-75
2023/07/30 00:53:24;;;;;;;37.45;13.88;;;;;;;-141.23;100.00;62281.09;5034559;28;20139;-75
2023/07/30 00:55:50;;;;;;;20.75;11.23;;;;;;;-141.23;100.00;62281.09;5034241;28;20424;-75
2023/07/30 00:58:16;;;;;;;17.40;9.90;;;;;;;-141.23;100.00;62281.09;5033673;28;20410;-74
2023/07/30 01:00:41;;;;;;;18.40;8.27;;;;;;;-141.23;100.00;62281.09;5034004;28;20065;-74
2023/07/30 01:03:08;;;;;;;15.40;8.25;;;;;;;-141.23;100.00;62281.09;5001813;28;20239;-74
2023/07/30 01:05:34;;;;;;;23.02;9.93;;;;;;;-141.23;100.00;62281.09;5001380;28;20049;-74
2023/07/30 01:08:01;;;;;;;16.95;8.95;;;;;;;-141.23;100.00;62281.09;5017100;28;20052;-74
2023/07/30 01:10:28;;;;;;;17.85;8.13;;;;;;;-141.23;100.00;62281.09;5026793;28;20120;-74
2023/07/30 01:12:56;;;;;;;13.50;7.57;;;;;;;-141.23;100.00;62281.09;4994086;28;20046;-72
2023/07/30 01:15:22;;;;;;;16.10;7.97;;;;;;;-141.23;100.00;62281.09;4994077;28;20119;-75
2023/07/30 01:17:48;;;;;;;13.27;7.60;;;;;;;-141.23;100.00;62281.09;4978261;28;20045;-76
2023/07/30 01:20:14;;;;;;;14.32;8.00;;;;;;;-141.23;100.00;62281.09;5011111;28;20068;-75
2023/07/30 01:22:39;;;;;;;13.13;7.03;;;;;;;-141.23;100.00;62281.09;5026407;28;20562;-75
2023/07/30 01:25:06;;;;;;;12.82;7.55;;;;;;;-141.23;100.00;62281.09;5013779;28;20045;-75
2023/07/30 01:27:37;;;;;;;20.52;7.15;;;;;;;-141.23;100.00;62281.09;4997073;28;20053;-75
2023/07/30 01:30:11;;;;;;;20.75;7.60;;;;;;;-141.23;100.00;62281.09;4997216;28;20046;-75
2023/07/30 01:32:37;;;;;;;19.70;7.38;;;;;;;-141.23;100.00;62281.09;5013329;28;20049;-75
2023/07/30 01:35:05;;;;;;;12.50;6.13;;;;;;;-141.23;100.00;62281.09;5013670;28;20168;-77
2023/07/30 01:37:31;;;;;;;13.23;7.13;;;;;;;-141.23;100.00;62281.09;5014009;28;20061;-75
2023/07/30 01:39:57;;;;;;;17.15;6.65;;;;;;;-141.23;100.00;62281.09;4981593;28;20080;-75
2023/07/30 01:42:28;;;;;;;14.32;6.80;;;;;;;-141.23;100.00;62281.09;5013363;28;20088;-75
2023/07/30 01:44:54;;;;;;;21.40;6.70;;;;;;;-141.23;100.00;62281.09;5013699;28;20056;-75
2023/07/30 01:47:20;;;;;;;18.15;6.90;;;;;;;-141.23;100.00;62281.09;4989252;28;20056;-75
2023/07/30 01:49:47;;;;;;;15.63;5.80;;;;;;;-141.23;100.00;62281.09;5052604;28;20044;-75
2023/07/30 01:52:13;;;;;;;16.27;5.85;;;;;;;-141.23;100.00;62281.09;5005309;28;20063;-74
2023/07/30 01:54:39;;;;;;;12.43;5.80;;;;;;;-141.23;100.00;62281.09;5037589;28;20052;-75
2023/07/30 01:57:05;;;;;;;12.30;6.10;;;;;;;-141.23;100.00;62281.09;5038424;28;20047;-76
2023/07/30 01:59:31;;;;;;;13.30;6.22;;;;;;;-141.23;100.00;62281.09;5038085;28;20098;-75
2023/07/30 02:01:57;;;;;;;11.00;5.90;;;;;;;-141.23;100.00;62281.09;5004898;28;20044;-75
2023/07/30 02:04:23;;;;;;;12.45;5.75;;;;;;;-141.23;100.00;62281.09;5054253;28;20049;-75
2023/07/30 02:06:49;;;;;;;11.82;6.25;;;;;;;-141.23;100.00;62281.09;5053998;28;20106;-75
2023/07/30 02:09:15;;;;;;;12.02;6.15;;;;;;;-141.23;100.00;62281.09;5037144;28;20056;-75
2023/07/30 02:11:40;;;;;;;8.10;5.95;;;;;;;-141.23;100.00;62281.09;5037294;28;20073;-75
2023/07/30 02:14:06;;;;;;;16.35;5.90;;;;;;;-141.23;100.00;62281.09;5055120;28;20053;-75
2023/07/30 02:16:32;;;;;;;11.00;6.00;;;;;;;-141.23;100.00;62281.09;5054544;28;20486;-74
2023/07/30 02:18:58;;;;;;;18.65;6.55;;;;;;;-141.23;100.00;62281.09;5055128;28;20468;-74
2023/07/30 02:21:24;;;;;;;14.68;6.60;;;;;;;-141.23;100.00;62281.09;5037265;28;20119;-75
2023/07/30 02:23:50;;;;;;;14.32;6.10;;;;;;;-141.23;100.00;62281.09;5053982;28;20051;-75
2023/07/30 02:26:15;;;;;;;9.57;6.32;;;;;;;-141.23;100.00;62281.09;5036925;28;20048;-74
2023/07/30 02:28:43;;;;;;;14.15;6.18;;;;;;;-141.23;100.00;62281.09;5054516;28;20056;-75
2023/07/30 02:31:11;;;;;;;15.57;7.47;;;;;;;-141.23;100.00;62281.09;5037972;28;20056;-75
2023/07/30 02:33:37;;;;;;;12.23;6.47;;;;;;;-141.23;100.00;62281.09;5037121;28;20295;-74
2023/07/30 02:36:05;;;;;;;13.77;6.40;;;;;;;-141.23;100.00;62281.09;5053622;28;20052;-73
2023/07/30 02:38:31;;;;;;;15.50;7.07;;;;;;;-141.23;100.00;62281.09;5054650;28;20059;-72
2023/07/30 02:40:57;;;;;;;12.70;6.90;;;;;;;-141.23;100.00;62281.09;5037183;28;20053;-74
2023/07/30 02:43:22;;;;;;;11.77;7.20;;;;;;;-141.23;100.00;62281.09;5036952;28;20055;-74
2023/07/30 02:45:48;;;;;;;11.20;6.78;;;;;;;-141.23;100.00;62281.09;5036764;28;20053;-74
2023/07/30 02:48:15;;;;;;;20.35;7.75;;;;;;;-141.23;100.00;62281.09;5053244;28;20040;-74
2023/07/30 02:50:40;;;;;;;18.75;6.78;;;;;;;-141.23;100.00;62281.09;5053313;28;20049;-75
2023/07/30 02:53:06;;;;;;;11.95;6.90;;;;;;;-141.23;100.00;62281.09;5053373;28;20086;-74
2023/07/30 02:55:32;;;;;;;13.50;6.90;;;;;;;-141.23;100.00;62281.09;5036977;28;20052;-73
2023/07/30 02:57:58;;;;;;;14.52;7.03;;;;;;;-141.23;100.00;62281.09;5020500;28;20079;-74
2023/07/30 03:00:23;;;;;;;15.32;6.50;;;;;;;-141.23;100.00;62281.09;5053329;28;20049;-74
2023/07/30 03:02:50;;;;;;;16.77;7.35;;;;;;;-141.23;100.00;62281.09;5036658;28;20063;-74
2023/07/30 03:05:16;;;;;;;12.07;6.43;;;;;;;-141.23;100.00;62281.09;5052812;28;20049;-74
2023/07/30 03:07:43;;;;;;;11.07;6.13;;;;;;;-141.23;100.00;62281.09;5036804;28;20375;-75
2023/07/30 03:10:09;;;;;;;15.38;6.57;;;;;;;-141.23;100.00;62281.09;5038917;28;20040;-75
2023/07/30 03:12:35;;;;;;;10.98;6.30;;;;;;;-141.23;100.00;62281.09;5054373;28;20032;-74
2023/07/30 03:15:01;;;;;;;9.95;5.70;;;;;;;-141.23;100.00;62281.09;5053136;28;20104;-74
2023/07/30 03:17:32;;;;;;;;;;;;;;;-141.23;100.00;62281.09;5053947;28;20047;-74
2023/07/30 03:19:58;;;;;;;10.93;6.10;;;;;;;-141.23;100.00;62281.09;5036460;28;19921;-74
2023/07/30 03:22:24;;;;;;;11.80;6.40;;;;;;;-141.23;100.00;62281.09;5052535;28;20571;-75
2023/07/30 03:24:49;;;;;;;11.50;6.07;;;;;;;-141.23;100.00;62281.09;5053355;28;20041;-75
2023/07/30 03:27:16;;;;;;;16.40;6.70;;;;;;;-141.23;100.00;62281.09;5019390;28;20364;-74
2023/07/30 03:29:41;;;;;;;10.43;6.18;;;;;;;-141.23;100.00;62281.09;5052443;28;20178;-74
2023/07/30 03:32:08;;;;;;;13.55;6.25;;;;;;;-141.23;100.00;62281.09;5053172;28;20045;-75
2023/07/30 03:34:34;;;;;;;12.52;6.20;;;;;;;-141.23;100.00;62281.09;5053141;28;20045;-73
2023/07/30 03:37:00;;;;;;;9.27;5.30;;;;;;;-141.23;100.00;62281.09;5053063;28;20045;-75
2023/07/30 03:39:26;;;;;;;10.00;5.82;;;;;;;-141.23;100.00;62281.09;5035952;28;20052;-75
2023/07/30 03:41:52;;;;;;;9.40;5.70;;;;;;;-141.23;100.00;62281.09;5052513;28;20101;-74
2023/07/30 03:44:18;;;;;;;9.60;5.40;;;;;;;-141.23;100.00;62281.09;5053523;28;20135;-75
2023/07/30 03:46:44;;;;;;;12.75;5.50;;;;;;;-141.23;100.00;62281.09;5035955;28;20384;-74
2023/07/30 03:49:10;;;;;;;9.40;5.55;;;;;;;-141.23;100.00;62281.09;5019249;28;20035;-75
2023/07/30 03:51:36;;;;;;;7.38;5.32;;;;;;;-141.23;100.00;62281.09;5052730;28;20041;-74
2023/07/30 03:54:01;;;;;;;8.90;4.78;;;;;;;-141.23;100.00;62281.09;5036147;28;20407;-75
2023/07/30 03:56:27;;;;;;;7.25;4.88;;;;;;;-141.23;100.00;62281.09;5019559;28;20072;-75
2023/07/30 03:58:54;;;;;;;7.68;4.55;;;;;;;-141.23;100.00;62281.09;5052631;28;20047;-75
2023/07/30 04:01:19;;;;;;;11.35;4.97;;;;;;;-141.23;100.00;62281.09;5035208;28;20040;-75
2023/07/30 04:03:46;;;;;;;7.85;4.53;;;;;;;-141.23;100.00;62281.09;5035096;28;20056;-75
2023/07/30 04:06:12;;;;;;;9.00;4.75;;;;;;;-141.23;100.00;62281.09;5052059;28;20041;-75
2023/07/30 04:08:38;;;;;;;5.90;4.03;;;;;;;-141.23;100.00;62281.09;5051516;28;20041;-75
2023/07/30 04:11:04;;;;;;;8.13;4.07;;;;;;;-141.23;100.00;62281.09;5018815;28;20115;-74
2023/07/30 04:13:30;;;;;;;6.82;3.83;;;;;;;-141.23;100.00;62281.09;5050879;28;20049;-75
2023/07/30 04:15:55;;;;;;;10.18;4.18;;;;;;;-141.23;100.00;62281.09;5051913;28;20763;-75
2023/07/30 04:18:22;;;;;;;7.93;3.97;;;;;;;-141.23;100.00;62281.09;5051970;28;20562;-75
2023/07/30 04:20:48;;;;;;;7.47;3.90;;;;;;;-141.23;100.00;62281.09;5034909;28;20041;-76
2023/07/30 04:23:14;;;;;;;10.48;4.07;;;;;;;-141.23;100.00;62281.09;5035300;28;20135;-75
2023/07/30 04:25:40;;;;;;;10.07;3.72;;;;;;;-141.23;100.00;62281.09;5035706;28;20045;-76
2023/07/30 04:28:06;;;;;;;8.98;3.42;;;;;;;-141.23;100.00;62281.09;5019640;28;20051;-75
2023/07/30 04:30:33;;;;;;;6.32;3.42;;;;;;;-141.23;100.00;62281.09;5051691;28;20095;-75
2023/07/30 04:32:59;;;;;;;6.85;3.63;;;;;;;-141.23;100.00;62281.09;5034554;28;20079;-76
2023/07/30 04:35:26;;;;;;;8.52;3.47;;;;;;;-141.23;100.00;62281.09;5035251;28;20546;-76
2023/07/30 04:37:51;;;;;;;11.63;3.20;;;;;;;-141.23;100.00;62281.09;5051622;28;20080;-75
2023/07/30 04:40:18;;;;;;;7.78;3.80;;;;;;;-141.23;100.00;62281.09;5018266;28;20040;-75
2023/07/30 04:42:46;;;;;;;8.43;3.80;;;;;;;-141.23;100.00;62281.09;5035027;28;20052;-76
2023/07/30 04:45:12;;;;;;;7.05;3.22;;;;;;;-141.23;100.00;62281.09;5051292;28;20426;-75
2023/07/30 04:47:41;;;;;;;10.73;3.20;;;;;;;-141.23;100.00;62281.09;5051663;28;20036;-75
2023/07/30 04:50:07;;;;;;;5.45;3.00;;;;;;;-141.23;100.00;62281.09;5034960;28;20156;-76
2023/07/30 04:52:32;;;;;;;4.65;3.17;;;;;;;-141.23;100.00;62281.09;5001812;28;20052;-75
2023/07/30 04:54:59;;;;;;;6.40;3.50;;;;;;;-141.23;100.00;62281.09;5034511;28;20549;-74
2023/07/30 04:57:26;;;;;;;7.03;3.08;;;;;;;-141.23;100.00;62281.09;5052320;28;20098;-76
2023/07/30 04:59:51;;;;;;;5.25;2.85;;;;;;;-141.23;100.00;62281.09;5051969;28;20117;-75
2023/07/30 05:02:17;;;;;;;5.60;3.03;;;;;;;-141.23;100.00;62281.09;5034455;28;20123;-75
2023/07/30 05:04:43;;;;;;;7.25;2.90;;;;;;;-141.23;100.00;62281.09;5051843;28;20045;-74
2023/07/30 05:07:09;;;;;;;5.57;2.80;;;;;;;-141.23;100.00;62281.09;5050801;28;20048;-74
2023/07/30 05:09:36;;;;;;;5.63;3.00;;;;;;;-141.23;100.00;62281.09;5018572;28;20045;-75
2023/07/30 05:12:02;;;;;;;9.07;2.65;;;;;;;-141.23;100.00;62281.09;5051004;28;20055;-75
2023/07/30 05:14:28;;;;;;;5.97;2.70;;;;;;;-141.23;100.00;62281.09;5053714;28;20075;-75
2023/07/30 05:16:54;;;;;;;9.05;2.83;;;;;;;-141.23;100.00;62281.09;5038158;28;20045;-75
2023/07/30 05:19:21;;;;;;;6.85;2.88;;;;;;;-141.23;100.00;62281.09;5019064;28;20160;-76
2023/07/30 05:21:47;;;;;;;6.57;2.65;;;;;;;-141.23;100.00;62281.09;5017975;28;20429;-76
2023/07/30 05:24:13;;;;;;;5.25;2.80;;;;;;;-141.23;100.00;62281.09;5017969;28;20106;-74
2023/07/30 05:26:38;;;;;;;7.13;3.03;;;;;;;-141.23;100.00;62281.09;5022154;28;20037;-76
2023/07/30 05:29:04;;;;;;;8.20;2.88;;;;;;;-141.23;100.00;62281.09;5038107;28;20041;-75
2023/07/30 05:31:30;;;;;;;7.88;3.35;;;;;;;-141.23;100.00;62281.09;5054874;28;20047;-75
2023/07/30 05:33:56;;;;;;;5.03;3.20;;;;;;;-141.23;100.00;62281.09;5056597;28;20178;-76
2023/07/30 05:36:22;;;;;;;8.32;3.00;;;;;;;-141.23;100.00;62281.09;5056032;28;20037;-75
2023/07/30 05:38:47;;;;;;;5.93;3.15;;;;;;;-141.23;100.00;62281.09;5038591;28;20045;-75
2023/07/30 05:41:13;;;;;;;9.82;3.25;;;;;;;-141.23;100.00;62281.09;5021970;28;20048;-74
2023/07/30 05:43:39;;;;;;;7.18;2.60;;;;;;;-141.23;100.00;62281.09;5054902;28;20043;-75
2023/07/30 05:46:05;;;;;;;5.63;2.70;;;;;;;-141.23;100.00;62281.09;5038206;28;20178;-76
2023/07/30 05:48:30;;;;;;;4.97;2.90;;;;;;;-141.23;100.00;62281.09;5054435;28;20037;-75
2023/07/30 05:50:56;;;;;;;5.63;2.95;;;;;;;-141.23;100.00;62281.09;5021341;28;20041;-75
2023/07/30 05:53:23;;;;;;;8.55;2.60;;;;;;;-141.23;100.00;62281.09;5021519;28;20037;-76
2023/07/30 05:55:50;;;;;;;4.07;2.53;;;;;;;-141.23;100.00;62281.09;5037755;28;20475;-75
2023/07/30 05:58:16;;;;;;;3.55;2.55;;;;;;;-141.23;100.00;62281.09;5054253;28;20141;-75
2023/07/30 06:00:41;;;;;;;5.40;3.17;;;;;;;-141.23;100.00;62281.09;5021509;28;20466;-74
2023/07/30 06:03:09;;;;;;;13.73;2.92;;;;;;;-141.23;100.00;62281.09;5037970;28;20069;-76
2023/07/30 06:05:42;;;;;;;4.88;2.85;;;;;;;-141.23;100.00;62281.09;5037842;28;20041;-77
2023/07/30 06:08:09;;;;;;;9.23;3.10;;;;;;;-141.23;100.00;62281.09;5038001;28;20053;-76
2023/07/30 06:10:36;;;;;;;6.82;3.10;;;;;;;-141.23;100.00;62281.09;5021387;28;20055;-76
2023/07/30 06:13:03;;;;;;;7.10;2.80;;;;;;;-141.23;100.00;62281.09;5037833;28;20071;-76
2023/07/30 06:15:30;;;;;;;7.35;3.25;;;;;;;-141.23;100.00;62281.09;5054430;28;20068;-75
2023/07/30 06:17:56;;;;;;;5.47;3.10;;;;;;;-141.23;100.00;62281.09;5021229;28;20387;-75
2023/07/30 06:20:21;;;;;;;5.53;3.25;;;;;;;-141.23;100.00;62281.09;5054269;28;20493;-76
2023/07/30 06:22:47;;;;;;;8.23;3.20;;;;;;;-141.23;100.00;62281.09;5037704;28;20040;-75
2023/07/30 06:25:13;;;;;;;6.38;2.70;;;;;;;-141.23;100.00;62281.09;5037361;28;20475;-75
2023/07/30 06:27:39;;;;;;;3.88;2.58;;;;;;;-141.23;100.00;62281.09;5004788;28;20040;-75
2023/07/30 06:30:05;;;;;;;6.25;2.53;;;;;;;-141.23;100.00;62281.09;5020895;28;20037;-76
2023/07/30 06:32:31;;;;;;;3.47;2.47;;;;;;;-141.23;100.00;62281.09;5037345;28;20045;-76
2023/07/30 06:34:57;;;;;;;6.07;2.25;;;;;;;-141.23;100.00;62281.09;4999696;28;20392;-74
2023/07/30 06:37:23;;;;;;;7.32;2.72;;;;;;;-141.23;100.00;62281.09;5000033;28;20049;-77
2023/07/30 06:39:50;;;;;;;9.23;2.60;;;;;;;-141.23;100.00;62281.09;5000717;28;20111;-75
2023/07/30 06:42:16;;;;;;;5.85;2.67;;;;;;;-141.23;100.00;62281.09;4999846;28;20046;-75
2023/07/30 06:44:43;;;;;;;7.85;3.08;;;;;;;-141.23;100.00;62281.09;4968008;28;20072;-76
2023/07/30 06:47:09;;;;;;;4.50;2.58;;;;;;;-141.23;100.00;62281.09;5000080;28;20065;-75
2023/07/30 06:49:35;;;;;;;5.30;2.60;;;;;;;-141.23;100.00;62281.09;4999929;28;20148;-76
2023/07/30 06:52:01;;;;;;;4.85;2.70;;;;;;;-141.23;100.00;62281.09;5016236;28;20073;-75
2023/07/30 06:54:28;;;;;;;4.93;2.42;;;;;;;-141.23;100.00;62281.09;4983658;28;20068;-76
2023/07/30 06:56:53;;;;;;;3.80;2.20;;;;;;;-141.23;100.00;62281.09;4999538;28;20052;-75
2023/07/30 06:59:19;;;;;;;6.72;2.30;;;;;;;-141.23;100.00;62281.09;5000117;28;20046;-75
2023/07/30 07:01:45;;;;;;;5.13;2.30;;;;;;;-141.23;100.00;62281.09;5016105;28;20041;-75
2023/07/30 07:04:12;;;;;;;3.05;2.05;;;;;;;-141.23;100.00;62281.09;5032552;28;20053;-76
2023/07/30 07:06:37;;;;;;;5.18;2.28;;;;;;;-141.23;100.00;62281.09;5028508;28;20056;-76
2023/07/30 07:09:03;;;;;;;10.10;2.60;;;;;;;-141.23;100.00;62281.09;5053302;28;20055;-76
2023/07/30 07:11:29;;;;;;;6.07;2.15;;;;;;;-141.23;100.00;62281.09;5053971;28;20390;-74
2023/07/30 07:13:55;;;;;;;4.13;2.00;;;;;;;-141.23;100.00;62281.09;5019696;28;20053;-76
2023/07/30 07:16:21;;;;;;;4.05;2.00;;;;;;;-141.23;100.00;62281.09;5003503;28;20071;-75
2023/07/30 07:18:48;;;;;;;4.50;2.15;;;;;;;-141.23;100.00;62281.09;5037565;28;20136;-74
2023/07/30 07:21:14;;;;;;;4.63;1.83;;;;;;;-141.23;100.00;62281.09;5040412;28;20048;-75
2023/07/30 07:23:40;;;;;;;8.80;2.20;;;;;;;-141.23;100.00;62281.09;5053651;28;20053;-76
2023/07/30 07:26:06;;;;;;;6.57;2.20;;;;;;;-141.23;100.00;62281.09;5003807;28;20037;-76
2023/07/30 07:28:32;;;;;;;5.53;1.88;;;;;;;-141.23;100.00;62281.09;5052787;28;20048;-76
2023/07/30 07:30:58;;;;;;;7.28;1.80;;;;;;;-141.23;100.00;62281.09;5003366;28;20545;-75
2023/07/30 07:33:24;;;;;;;5.05;1.73;;;;;;;-141.23;100.00;62281.09;5036079;28;20177;-75
2023/07/30 07:35:51;;;;;;;4.97;1.73;;;;;;;-141.23;100.00;62281.09;5053399;28;20102;-75
2023/07/30 07:38:17;;;;;;;6.70;1.80;;;;;;;-141.23;100.00;62281.09;5019710;28;20187;-75
2023/07/30 07:40:42;;;;;;;7.18;1.77;;;;;;;-141.23;100.00;62281.09;5052562;28;20493;-76
2023/07/30 07:43:08;;;;;;;8.60;2.10;;;;;;;-141.23;100.00;62281.09;5053223;28;20393;-76
2023/07/30 07:45:34;;;;;;;7.95;1.77;;;;;;;-141.23;100.00;62281.09;5019072;28;20199;-75
2023/07/30 07:48:00;;;;;;;4.15;1.63;;;;;;;-141.23;100.00;62281.09;5051497;28;20128;-76
2023/07/30 07:50:28;;;;;;;4.50;1.80;;;;;;;-141.23;100.00;62281.09;5035648;28;20495;-76
2023/07/30 07:52:54;;;;;;;4.63;1.95;;;;;;;-141.23;100.00;62281.09;5052880;28;20051;-76
2023/07/30 07:55:19;;;;;;;6.43;2.42;;;;;;;-141.23;100.00;62281.09;5019180;28;20040;-76
2023/07/30 07:57:46;;;;;;;5.45;1.98;;;;;;;-141.23;100.00;62281.09;5035701;28;20060;-77
2023/07/30 08:00:12;;;;;;;5.90;2.10;;;;;;;-141.23;100.00;62281.09;5051931;28;20044;-77
2023/07/30 08:02:39;;;;;;;4.03;1.83;;;;;;;-141.23;100.00;62281.09;5035406;28;20137;-77
2023/07/30 08:05:05;;;;;;;3.67;1.50;;;;;;;-141.23;100.00;62281.09;5018870;28;20102;-76
2023/07/30 08:07:31;;;;;;;6.18;2.22;;;;;;;-141.23;100.00;62281.09;5019124;28;20072;-77
2023/07/30 08:09:58;;;;;;;6.85;2.33;;;;;;;-141.23;100.00;62281.09;5018620;28;20043;-76
2023/07/30 08:12:23;;;;;;;3.83;1.55;;;;;;;-141.23;100.00;62281.09;5052527;28;20044;-75
2023/07/30 08:14:50;;;;;;;4.50;1.90;;;;;;;-141.23;100.00;62281.09;5052122;28;20383;-76
2023/07/30 08:17:16;;;;;;;3.75;1.48;;;;;;;-141.23;100.00;62281.09;5002873;28;20140;-75
2023/07/30 08:19:42;;;;;;;2.65;1.58;;;;;;;-141.23;100.00;62281.09;5051404;28;20092;-76
2023/07/30 08:22:08;;;;;;;3.00;1.55;;;;;;;-141.23;100.00;62281.09;5051504;28;20045;-75
2023/07/30 08:24:34;;;;;;;4.93;1.50;;;;;;;-141.23;100.00;62281.09;5034850;28;20128;-75
2023/07/30 08:26:59;;;;;;;3.78;1.48;;;;;;;-141.23;100.00;62281.09;5051457;28;20040;-75
2023/07/30 08:29:26;;;;;;;5.80;1.55;;;;;;;-141.23;100.00;62281.09;5035051;28;20041;-76
2023/07/30 08:31:52;;;;;;;2.45;1.60;;;;;;;-141.23;100.00;62281.09;5051366;28;20491;-75
2023/07/30 08:34:18;;;;;;;2.85;1.52;;;;;;;-141.23;100.00;62281.09;5051272;28;20041;-75
2023/07/30 08:36:44;;;;;;;6.65;1.80;;;;;;;-141.23;100.00;62281.09;5034633;28;20071;-75
2023/07/30 08:39:09;;;;;;;3.88;1.90;;;;;;;-141.23;100.00;62281.09;5018657;28;20059;-75
2023/07/30 08:41:35;;;;;;;7.70;1.90;;;;;;;-141.23;100.00;62281.09;5035213;28;20044;-75
2023/07/30 08:44:02;;;;;;;7.55;2.20;;;;;;;-141.23;100.00;62281.09;5035017;28;20033;-75
2023/07/30 08:46:27;;;;;;;5.35;2.00;;;;;;;-141.23;100.00;62281.09;5034697;28;20060;-74
2023/07/30 08:48:54;;;;;;;6.45;1.95;;;;;;;-141.23;100.00;62281.09;5051508;28;20045;-75
2023/07/30 08:51:21;;;;;;;4.50;1.52;;;;;;;-141.23;100.00;62281.09;5034801;28;20037;-76
2023/07/30 08:53:48;;;;;;;3.20;1.77;;;;;;;-141.23;100.00;62281.09;5018550;28;20062;-76
2023/07/30 08:56:15;;;;;;;6.53;1.30;;;;;;;-141.23;100.00;62281.09;5052360;28;20055;-75
2023/07/30 08:58:41;;;;;;;2.30;1.63;;;;;;;-141.23;100.00;62281.09;5051315;28;20486;-75
2023/07/30 09:01:12;;;;;;;4.63;1.90;;;;;;;-141.23;100.00;62281.09;5018116;28;20063;-76
2023/07/30 09:03:39;;;;;;;3.05;1.95;;;;;;;-141.23;100.00;62281.09;5017940;28;20048;-75
2023/07/30 09:06:08;;;;;;;6.57;1.67;;;;;;;-141.23;100.00;62281.09;5037093;28;20398;-76
2023/07/30 09:08:35;;;;;;;3.20;1.65;;;;;;;-141.23;100.00;62281.09;5020354;28;20151;-76
2023/07/30 09:11:08;;;;;;;4.50;1.40;;;;;;;-141.23;100.00;62281.09;5053167;28;20052;-76
2023/07/30 09:13:38;;;;;;;3.22;1.27;;;;;;;-141.23;100.00;62281.09;5036481;28;20048;-76
2023/07/30 09:16:14;;;;;;;5.53;1.30;;;;;;;-141.23;100.00;62281.09;5053356;28;20055;-77
2023/07/30 09:18:46;;;;;;;1.60;1.08;;;;;;;-141.23;100.00;62281.09;5053472;28;20144;-76
2023/07/30 09:21:13;;;;;;;1.67;1.33;;;;;;;-141.23;100.00;62281.09;5069723;28;20041;-76
2023/07/30 09:23:43;;;;;;;3.88;1.40;;;;;;;-141.23;100.00;62281.09;5053846;28;20045;-76
2023/07/30 09:26:09;;;;;;;8.75;1.30;;;;;;;-141.23;100.00;62281.09;5039174;28;20048;-77
2023/07/30 09:28:35;;;;;;;3.65;1.50;;;;;;;-141.23;100.00;62281.09;5037529;28;20106;-76
2023/07/30 09:31:05;;;;;;;7.35;1.60;;;;;;;-141.23;100.00;62281.09;5036435;28;20061;-76
2023/07/30 09:33:32;;;;;;;8.93;1.77;;;;;;;-141.23;100.00;62281.09;5036494;28;20552;-76
2023/07/30 09:36:02;;;;;;;7.55;1.52;;;;;;;-141.23;100.00;62281.09;5068614;28;20139;-76
2023/07/30 09:38:30;;;;;;;3.58;1.27;;;;;;;-141.23;100.00;62281.09;5050752;28;20053;-76
2023/07/30 09:41:02;;;;;;;5.33;4.83;;;;;;;-141.23;100.00;62281.09;5018315;28;20059;-76
2023/07/30 09:43:31;;;;;;;3.83;1.50;;;;;;;-141.23;100.00;62281.09;5050461;28;20041;-75
2023/07/30 09:46:05;;;;;;;4.95;1.58;;;;;;;-141.23;100.00;62281.09;5034490;28;20037;-76
2023/07/30 09:48:32;;;;;;;7.50;2.10;;;;;;;-141.23;100.00;62281.09;5001256;28;20135;-77
2023/07/30 09:51:03;;;;;;;7.15;1.85;;;;;;;-141.23;100.00;62281.09;5001306;28;20099;-76
2023/07/30 09:53:34;;;;;;;5.20;1.73;;;;;;;-141.23;100.00;62281.09;5034091;28;20048;-76
2023/07/30 09:56:05;;;;;;;4.63;1.40;;;;;;;-141.23;100.00;62281.09;5051110;28;20049;-76
2023/07/30 09:58:31;;;;;;;3.30;1.58;;;;;;;-141.23;100.00;62281.09;5018411;28;20041;-76
2023/07/30 10:01:01;;;;;;;3.15;1.52;;;;;;;-141.23;100.00;62281.09;5034572;28;20044;-76
2023/07/30 10:03:27;;;;;;;3.50;1.52;;;;;;;-141.23;100.00;62281.09;5034460;28;20052;-77
2023/07/30 10:06:02;;;;;;;5.85;1.50;;;;;;;-141.23;100.00;62281.09;5034772;28;20056;-77
2023/07/30 10:08:29;;;;;;;5.35;1.40;;;;;;;-141.23;100.00;62281.09;5050547;28;20048;-77
2023/07/30 10:10:55;;;;;;;2.30;1.33;;;;;;;-141.23;100.00;62281.09;5035111;28;20048;-78
2023/07/30 10:13:21;;;;;;;4.68;1.40;;;;;;;-141.23;100.00;62281.09;5053886;28;20057;-76
2023/07/30 10:15:47;;;;;;;3.10;1.20;;;;;;;-141.23;100.00;62281.09;5004008;28;20044;-77
2023/07/30 10:18:13;;;;;;;5.90;1.65;;;;;;;-141.23;100.00;62281.09;5054050;28;20127;-77
2023/07/30 10:20:40;;;;;;;6.45;1.50;;;;;;;-141.23;100.00;62281.09;5037216;28;20053;-77
2023/07/30 10:23:06;;;;;;;3.38;1.38;;;;;;;-141.23;100.00;62281.09;5054832;28;20163;-78
2023/07/30 10:25:46;;;;;;;4.30;1.20;;;;;;;-141.23;100.00;62281.09;5053668;28;20056;-78
2023/07/30 10:28:33;;;;;;;3.45;1.27;;;;;;;-141.23;100.00;62281.09;5037276;28;20102;-77
2023/07/30 10:31:04;;;;;;;6.15;1.10;;;;;;;-141.23;100.00;62281.09;5037440;28;20136;-76
2023/07/30 10:33:50;;;;;;;1.33;1.10;;;;;;;-141.23;100.00;62281.09;5004263;28;20041;-76
2023/07/30 10:36:19;;;;;;;3.95;0.98;;;;;;;-141.23;100.00;62281.09;5054772;28;20044;-76
2023/07/30 10:38:45;;;;;;;4.30;1.48;;;;;;;-141.23;100.00;62281.09;5037059;28;20049;-78
2023/07/30 10:41:14;;;;;;;4.13;1.20;;;;;;;-141.23;100.00;62281.09;5054666;28;20450;-76
2023/07/30 10:43:41;;;;;;;;;;;;;;;-141.23;100.00;62281.09;5054030;28;20199;-76
2023/07/30 10:46:09;;;;;;;2.58;1.20;;;;;;;-141.23;100.00;62281.09;5003966;28;19978;-77
2023/07/30 10:48:42;;;;;;;1.70;1.10;;;;;;;-141.23;100.00;62281.09;5053976;28;20531;-76
2023/07/30 10:51:10;;;;;;;4.43;1.17;;;;;;;-141.23;100.00;62281.09;5036698;28;20048;-77
2023/07/30 10:53:36;;;;;;;1.50;1.10;;;;;;;-141.23;100.00;62281.09;5053442;28;20377;-76
2023/07/30 10:56:04;;;;;;;2.53;1.40;;;;;;;-141.23;100.00;62281.09;5053416;28;20037;-77
2023/07/30 10:58:31;;;;;;;2.80;1.00;;;;;;;-141.23;100.00;62281.09;5053937;28;20084;-76
2023/07/30 11:00:57;;;;;;;5.55;1.23;;;;;;;-141.23;100.00;62281.09;5004358;28;20113;-78
2023/07/30 11:03:27;;;;;;;3.17;1.08;;;;;;;-141.23;100.00;62281.09;5019715;28;20045;-77
2023/07/30 11:05:54;;;;;;;3.30;1.30;;;;;;;-141.23;100.00;62281.09;5052050;28;20118;-77